sensor_id;sensor_type;location;lat;lon;timestamp;temperature;humidity
59469;DHT22;45277;52.768;18.262;2022-12-11T00:01:18;-0.10;99.90
59469;DHT22;45277;52.768;18.262;2022-12-11T00:02:50;0.00;99.90
59469;DHT22;45277;52.768;18.262;2022-12-11T00:04:21;0.00;99.90
59469;DHT22;45277;52.768;18.262;2022-12-11T00:05:53;-0.10;99.90
59469;DHT22;45277;52.768;18.262;2022-12-11T00:07:25;-0.20;99.90
59469;DHT22;45277;52.768;18.262;2022-12-11T00:08:56;-0.30;99.90
59469;DHT22;45277;52.768;18.262;2022-12-11T00:10:27;-0.30;99.90
59469;DHT22;45277;52.768;18.262;2022-12-11T00:11:59;-0.40;99.90
59469;DHT22;45277;52.768;18.262;2022-12-11T00:13:32;-0.40;99.90
59469;DHT22;45277;52.768;18.262;2022-12-11T00:15:03;-0.40;99.90
59469;DHT22;45277;52.768;18.262;2022-12-11T00:16:35;-0.40;99.90
59469;DHT22;45277;52.768;18.262;2022-12-11T00:18:11;-0.40;99.90
59469;DHT22;45277;52.768;18.262;2022-12-11T00:19:42;-0.40;99.90
59469;DHT22;45277;52.768;18.262;2022-12-11T00:21:14;-0.40;99.90
59469;DHT22;45277;52.768;18.262;2022-12-11T00:22:46;-0.40;99.90
59469;DHT22;45277;52.768;18.262;2022-12-11T00:24:17;-0.40;99.90
59469;DHT22;45277;52.768;18.262;2022-12-11T00:25:49;-0.40;99.90
59469;DHT22;45277;52.768;18.262;2022-12-11T00:27:20;-0.40;99.90
59469;DHT22;45277;52.768;18.262;2022-12-11T00:28:55;-0.30;99.90
59469;DHT22;45277;52.768;18.262;2022-12-11T00:30:27;-0.30;99.90
59469;DHT22;45277;52.768;18.262;2022-12-11T00:31:58;-0.30;99.90
59469;DHT22;45277;52.768;18.262;2022-12-11T00:33:30;-0.30;99.90
59469;DHT22;45277;52.768;18.262;2022-12-11T00:35:01;-0.20;99.90
59469;DHT22;45277;52.768;18.262;2022-12-11T00:36:33;-0.20;99.90
59469;DHT22;45277;52.768;18.262;2022-12-11T00:38:04;-0.20;99.90
59469;DHT22;45277;52.768;18.262;2022-12-11T00:39:37;-0.10;99.90
59469;DHT22;45277;52.768;18.262;2022-12-11T00:41:10;-0.20;99.90
59469;DHT22;45277;52.768;18.262;2022-12-11T00:42:41;-0.30;99.90
59469;DHT22;45277;52.768;18.262;2022-12-11T00:44:13;-0.40;99.90
59469;DHT22;45277;52.768;18.262;2022-12-11T00:45:46;-0.40;99.90
59469;DHT22;45277;52.768;18.262;2022-12-11T00:47:18;-0.50;99.90
59469;DHT22;45277;52.768;18.262;2022-12-11T00:48:49;-0.50;99.90
59469;DHT22;45277;52.768;18.262;2022-12-11T00:50:21;-0.60;99.90
59469;DHT22;45277;52.768;18.262;2022-12-11T00:51:53;-0.60;99.90
59469;DHT22;45277;52.768;18.262;2022-12-11T00:53:24;-0.60;99.90
59469;DHT22;45277;52.768;18.262;2022-12-11T00:54:56;-0.60;99.90
59469;DHT22;45277;52.768;18.262;2022-12-11T00:56:27;-0.60;99.90
59469;DHT22;45277;52.768;18.262;2022-12-11T00:57:59;-0.60;99.90
59469;DHT22;45277;52.768;18.262;2022-12-11T00:59:30;-0.60;99.90
59469;DHT22;45277;52.768;18.262;2022-12-11T01:01:07;-0.60;99.90
59469;DHT22;45277;52.768;18.262;2022-12-11T01:02:39;-0.50;99.90
59469;DHT22;45277;52.768;18.262;2022-12-11T01:04:10;-0.60;99.90
59469;DHT22;45277;52.768;18.262;2022-12-11T01:05:51;-0.60;99.90
59469;DHT22;45277;52.768;18.262;2022-12-11T01:07:23;-0.60;99.90
59469;DHT22;45277;52.768;18.262;2022-12-11T01:08:55;-0.60;99.90
59469;DHT22;45277;52.768;18.262;2022-12-11T01:10:45;-0.50;99.90
59469;DHT22;45277;52.768;18.262;2022-12-11T01:12:16;-0.60;99.90
59469;DHT22;45277;52.768;18.262;2022-12-11T01:13:48;-0.60;99.90
59469;DHT22;45277;52.768;18.262;2022-12-11T01:15:20;-0.60;99.90
59469;DHT22;45277;52.768;18.262;2022-12-11T01:16:53;-0.60;99.90
59469;DHT22;45277;52.768;18.262;2022-12-11T01:18:24;-0.60;99.90
59469;DHT22;45277;52.768;18.262;2022-12-11T01:19:56;-0.70;99.90
59469;DHT22;45277;52.768;18.262;2022-12-11T01:21:28;-0.70;99.90
59469;DHT22;45277;52.768;18.262;2022-12-11T01:23:00;-0.70;99.90
59469;DHT22;45277;52.768;18.262;2022-12-11T01:24:32;-0.70;99.90
59469;DHT22;45277;52.768;18.262;2022-12-11T01:26:10;-0.70;99.90
59469;DHT22;45277;52.768;18.262;2022-12-11T01:27:41;-0.80;99.90
59469;DHT22;45277;52.768;18.262;2022-12-11T01:29:12;-0.70;99.90
59469;DHT22;45277;52.768;18.262;2022-12-11T01:30:44;-0.80;99.90
59469;DHT22;45277;52.768;18.262;2022-12-11T01:32:16;-0.70;99.90
59469;DHT22;45277;52.768;18.262;2022-12-11T01:33:47;-0.70;99.90
59469;DHT22;45277;52.768;18.262;2022-12-11T01:35:19;-0.60;99.90
59469;DHT22;45277;52.768;18.262;2022-12-11T01:36:51;-0.60;99.90
59469;DHT22;45277;52.768;18.262;2022-12-11T01:38:22;-0.70;99.90
59469;DHT22;45277;52.768;18.262;2022-12-11T01:39:54;-0.80;99.90
59469;DHT22;45277;52.768;18.262;2022-12-11T01:41:25;-0.90;99.90
59469;DHT22;45277;52.768;18.262;2022-12-11T01:42:57;-0.90;99.90
59469;DHT22;45277;52.768;18.262;2022-12-11T01:46:00;-0.90;99.90
59469;DHT22;45277;52.768;18.262;2022-12-11T01:47:31;-1.00;99.90
59469;DHT22;45277;52.768;18.262;2022-12-11T01:49:06;-0.90;99.90
59469;DHT22;45277;52.768;18.262;2022-12-11T01:50:48;-0.80;99.90
59469;DHT22;45277;52.768;18.262;2022-12-11T01:52:21;-0.70;99.90
59469;DHT22;45277;52.768;18.262;2022-12-11T01:53:58;-0.70;99.90
59469;DHT22;45277;52.768;18.262;2022-12-11T01:55:31;-0.80;99.90
59469;DHT22;45277;52.768;18.262;2022-12-11T01:57:05;-0.70;99.90
59469;DHT22;45277;52.768;18.262;2022-12-11T01:58:42;-0.80;99.90
59469;DHT22;45277;52.768;18.262;2022-12-11T02:00:16;-0.90;99.90
59469;DHT22;45277;52.768;18.262;2022-12-11T02:03:25;-0.80;99.90
59469;DHT22;45277;52.768;18.262;2022-12-11T02:04:57;-0.90;99.90
59469;DHT22;45277;52.768;18.262;2022-12-11T02:06:33;-0.80;99.90
59469;DHT22;45277;52.768;18.262;2022-12-11T02:08:07;-0.80;99.90
59469;DHT22;45277;52.768;18.262;2022-12-11T02:09:41;-0.80;99.90
59469;DHT22;45277;52.768;18.262;2022-12-11T02:11:19;-0.90;99.90
59469;DHT22;45277;52.768;18.262;2022-12-11T02:12:59;-1.00;99.90
59469;DHT22;45277;52.768;18.262;2022-12-11T02:16:41;-1.10;99.90
59469;DHT22;45277;52.768;18.262;2022-12-11T02:18:47;-1.10;99.90
59469;DHT22;45277;52.768;18.262;2022-12-11T02:20:30;-1.10;99.90
59469;DHT22;45277;52.768;18.262;2022-12-11T02:22:15;-1.10;99.90
59469;DHT22;45277;52.768;18.262;2022-12-11T02:24:40;-1.10;99.90
59469;DHT22;45277;52.768;18.262;2022-12-11T02:26:11;-1.20;99.90
59469;DHT22;45277;52.768;18.262;2022-12-11T02:28:09;-1.20;99.90
59469;DHT22;45277;52.768;18.262;2022-12-11T02:29:44;-1.10;99.90
59469;DHT22;45277;52.768;18.262;2022-12-11T02:32:58;-1.10;99.90
59469;DHT22;45277;52.768;18.262;2022-12-11T02:34:40;-1.10;99.90
59469;DHT22;45277;52.768;18.262;2022-12-11T02:36:15;-1.20;99.90
59469;DHT22;45277;52.768;18.262;2022-12-11T02:37:53;-1.20;99.90
59469;DHT22;45277;52.768;18.262;2022-12-11T02:39:28;-1.20;99.90
59469;DHT22;45277;52.768;18.262;2022-12-11T02:41:01;-1.20;99.90
59469;DHT22;45277;52.768;18.262;2022-12-11T02:42:35;-1.10;99.90
59469;DHT22;45277;52.768;18.262;2022-12-11T02:44:10;-1.00;99.90
59469;DHT22;45277;52.768;18.262;2022-12-11T02:45:45;-1.10;99.90
59469;DHT22;45277;52.768;18.262;2022-12-11T02:47:18;-1.00;99.90
59469;DHT22;45277;52.768;18.262;2022-12-11T02:48:50;-1.00;99.90
59469;DHT22;45277;52.768;18.262;2022-12-11T02:50:24;-1.00;99.90
59469;DHT22;45277;52.768;18.262;2022-12-11T02:51:58;-0.90;99.90
59469;DHT22;45277;52.768;18.262;2022-12-11T02:53:31;-0.90;99.90
59469;DHT22;45277;52.768;18.262;2022-12-11T02:55:06;-1.00;99.90
59469;DHT22;45277;52.768;18.262;2022-12-11T02:57:01;-1.00;99.90
59469;DHT22;45277;52.768;18.262;2022-12-11T02:58:37;-1.00;99.90
59469;DHT22;45277;52.768;18.262;2022-12-11T03:00:12;-1.10;99.90
59469;DHT22;45277;52.768;18.262;2022-12-11T03:01:45;-1.00;99.90
59469;DHT22;45277;52.768;18.262;2022-12-11T03:03:17;-1.10;99.90
59469;DHT22;45277;52.768;18.262;2022-12-11T03:04:48;-1.10;99.90
59469;DHT22;45277;52.768;18.262;2022-12-11T03:06:23;-1.10;99.90
59469;DHT22;45277;52.768;18.262;2022-12-11T03:07:58;-1.10;99.90
59469;DHT22;45277;52.768;18.262;2022-12-11T03:09:29;-1.20;99.90
59469;DHT22;45277;52.768;18.262;2022-12-11T03:11:00;-1.20;99.90
59469;DHT22;45277;52.768;18.262;2022-12-11T03:12:35;-1.20;99.90
59469;DHT22;45277;52.768;18.262;2022-12-11T03:14:07;-1.20;99.90
59469;DHT22;45277;52.768;18.262;2022-12-11T03:15:53;-1.10;99.90
59469;DHT22;45277;52.768;18.262;2022-12-11T03:19:26;-1.10;99.90
59469;DHT22;45277;52.768;18.262;2022-12-11T03:21:11;-1.10;99.90
59469;DHT22;45277;52.768;18.262;2022-12-11T03:22:53;-1.10;99.90
59469;DHT22;45277;52.768;18.262;2022-12-11T03:24:46;-1.10;99.90
59469;DHT22;45277;52.768;18.262;2022-12-11T03:26:20;-1.10;99.90
59469;DHT22;45277;52.768;18.262;2022-12-11T03:27:57;-1.10;99.90
59469;DHT22;45277;52.768;18.262;2022-12-11T03:29:35;-1.00;99.90
59469;DHT22;45277;52.768;18.262;2022-12-11T03:31:10;-1.00;99.90
59469;DHT22;45277;52.768;18.262;2022-12-11T03:32:55;-1.00;99.90
59469;DHT22;45277;52.768;18.262;2022-12-11T03:34:30;-0.90;99.90
59469;DHT22;45277;52.768;18.262;2022-12-11T03:36:06;-0.90;99.90
59469;DHT22;45277;52.768;18.262;2022-12-11T03:37:41;-1.00;99.90
59469;DHT22;45277;52.768;18.262;2022-12-11T03:39:18;-1.00;99.90
59469;DHT22;45277;52.768;18.262;2022-12-11T03:40:53;-1.00;99.90
59469;DHT22;45277;52.768;18.262;2022-12-11T03:42:26;-1.00;99.90
59469;DHT22;45277;52.768;18.262;2022-12-11T03:43:58;-1.00;99.90
59469;DHT22;45277;52.768;18.262;2022-12-11T03:45:30;-1.00;99.90
59469;DHT22;45277;52.768;18.262;2022-12-11T03:47:05;-1.00;99.90
59469;DHT22;45277;52.768;18.262;2022-12-11T03:48:39;-1.10;99.90
59469;DHT22;45277;52.768;18.262;2022-12-11T03:50:14;-1.10;99.90
59469;DHT22;45277;52.768;18.262;2022-12-11T03:51:47;-1.20;99.90
59469;DHT22;45277;52.768;18.262;2022-12-11T03:53:20;-1.10;99.90
59469;DHT22;45277;52.768;18.262;2022-12-11T03:54:52;-1.20;99.90
59469;DHT22;45277;52.768;18.262;2022-12-11T03:56:27;-1.10;99.90
59469;DHT22;45277;52.768;18.262;2022-12-11T03:58:00;-1.20;99.90
59469;DHT22;45277;52.768;18.262;2022-12-11T03:59:31;-1.10;99.90
59469;DHT22;45277;52.768;18.262;2022-12-11T04:01:07;-1.00;99.90
59469;DHT22;45277;52.768;18.262;2022-12-11T04:02:39;-1.00;99.90
59469;DHT22;45277;52.768;18.262;2022-12-11T04:04:10;-1.00;99.90
59469;DHT22;45277;52.768;18.262;2022-12-11T04:05:47;-1.00;99.90
59469;DHT22;45277;52.768;18.262;2022-12-11T04:07:19;-1.00;99.90
59469;DHT22;45277;52.768;18.262;2022-12-11T04:08:50;-1.00;99.90
59469;DHT22;45277;52.768;18.262;2022-12-11T04:10:22;-1.00;99.90
59469;DHT22;45277;52.768;18.262;2022-12-11T04:11:53;-1.00;99.90
59469;DHT22;45277;52.768;18.262;2022-12-11T04:13:24;-1.10;99.90
59469;DHT22;45277;52.768;18.262;2022-12-11T04:14:56;-1.10;99.90
59469;DHT22;45277;52.768;18.262;2022-12-11T04:16:33;-1.10;99.90
59469;DHT22;45277;52.768;18.262;2022-12-11T04:18:05;-1.10;99.90
59469;DHT22;45277;52.768;18.262;2022-12-11T04:19:55;-1.20;99.90
59469;DHT22;45277;52.768;18.262;2022-12-11T04:21:45;-1.30;99.90
59469;DHT22;45277;52.768;18.262;2022-12-11T04:23:35;-1.40;99.90
59469;DHT22;45277;52.768;18.262;2022-12-11T04:25:25;-1.30;99.90
59469;DHT22;45277;52.768;18.262;2022-12-11T04:26:56;-1.30;99.90
59469;DHT22;45277;52.768;18.262;2022-12-11T04:28:27;-1.30;99.90
59469;DHT22;45277;52.768;18.262;2022-12-11T04:29:59;-1.30;99.90
59469;DHT22;45277;52.768;18.262;2022-12-11T04:31:30;-1.30;99.90
59469;DHT22;45277;52.768;18.262;2022-12-11T04:33:02;-1.30;99.90
59469;DHT22;45277;52.768;18.262;2022-12-11T04:34:34;-1.30;99.90
59469;DHT22;45277;52.768;18.262;2022-12-11T04:36:06;-1.30;99.90
59469;DHT22;45277;52.768;18.262;2022-12-11T04:37:37;-1.30;99.90
59469;DHT22;45277;52.768;18.262;2022-12-11T04:39:09;-1.30;99.90
59469;DHT22;45277;52.768;18.262;2022-12-11T04:40:41;-1.30;99.90
59469;DHT22;45277;52.768;18.262;2022-12-11T04:42:12;-1.40;99.90
59469;DHT22;45277;52.768;18.262;2022-12-11T04:43:44;-1.40;99.90
59469;DHT22;45277;52.768;18.262;2022-12-11T04:45:16;-1.40;99.90
59469;DHT22;45277;52.768;18.262;2022-12-11T04:46:47;-1.40;99.90
59469;DHT22;45277;52.768;18.262;2022-12-11T04:48:19;-1.40;99.90
59469;DHT22;45277;52.768;18.262;2022-12-11T04:49:50;-1.40;99.90
59469;DHT22;45277;52.768;18.262;2022-12-11T04:51:22;-1.40;99.90
59469;DHT22;45277;52.768;18.262;2022-12-11T04:52:55;-1.40;99.90
59469;DHT22;45277;52.768;18.262;2022-12-11T04:54:28;-1.40;99.90
59469;DHT22;45277;52.768;18.262;2022-12-11T04:56:00;-1.50;99.90
59469;DHT22;45277;52.768;18.262;2022-12-11T04:57:32;-1.50;99.90
59469;DHT22;45277;52.768;18.262;2022-12-11T04:59:04;-1.50;99.90
59469;DHT22;45277;52.768;18.262;2022-12-11T05:00:35;-1.50;99.90
59469;DHT22;45277;52.768;18.262;2022-12-11T05:02:07;-1.50;99.90
59469;DHT22;45277;52.768;18.262;2022-12-11T05:03:38;-1.50;99.90
59469;DHT22;45277;52.768;18.262;2022-12-11T05:05:10;-1.50;99.90
59469;DHT22;45277;52.768;18.262;2022-12-11T05:06:42;-1.50;99.90
59469;DHT22;45277;52.768;18.262;2022-12-11T05:08:13;-1.40;99.90
59469;DHT22;45277;52.768;18.262;2022-12-11T05:09:45;-1.40;99.90
59469;DHT22;45277;52.768;18.262;2022-12-11T05:11:17;-1.50;99.90
59469;DHT22;45277;52.768;18.262;2022-12-11T05:12:48;-1.50;99.90
59469;DHT22;45277;52.768;18.262;2022-12-11T05:14:19;-1.50;99.90
59469;DHT22;45277;52.768;18.262;2022-12-11T05:15:51;-1.40;99.90
59469;DHT22;45277;52.768;18.262;2022-12-11T05:17:23;-1.40;99.90
59469;DHT22;45277;52.768;18.262;2022-12-11T05:18:54;-1.50;99.90
59469;DHT22;45277;52.768;18.262;2022-12-11T05:20:26;-1.60;99.90
59469;DHT22;45277;52.768;18.262;2022-12-11T05:21:58;-1.60;99.90
59469;DHT22;45277;52.768;18.262;2022-12-11T05:23:29;-1.60;99.90
59469;DHT22;45277;52.768;18.262;2022-12-11T05:25:01;-1.50;99.90
59469;DHT22;45277;52.768;18.262;2022-12-11T05:26:32;-1.50;99.90
59469;DHT22;45277;52.768;18.262;2022-12-11T05:28:04;-1.50;99.90
59469;DHT22;45277;52.768;18.262;2022-12-11T05:29:36;-1.50;99.90
59469;DHT22;45277;52.768;18.262;2022-12-11T05:31:12;-1.50;99.90
59469;DHT22;45277;52.768;18.262;2022-12-11T05:32:43;-1.60;99.90
59469;DHT22;45277;52.768;18.262;2022-12-11T05:34:15;-1.60;99.90
59469;DHT22;45277;52.768;18.262;2022-12-11T05:35:47;-1.60;99.90
59469;DHT22;45277;52.768;18.262;2022-12-11T05:37:18;-1.60;99.90
59469;DHT22;45277;52.768;18.262;2022-12-11T05:38:51;-1.60;99.90
59469;DHT22;45277;52.768;18.262;2022-12-11T05:40:22;-1.50;99.90
59469;DHT22;45277;52.768;18.262;2022-12-11T05:41:54;-1.50;99.90
59469;DHT22;45277;52.768;18.262;2022-12-11T05:43:27;-1.50;99.90
59469;DHT22;45277;52.768;18.262;2022-12-11T05:44:59;-1.50;99.90
59469;DHT22;45277;52.768;18.262;2022-12-11T05:46:30;-1.50;99.90
59469;DHT22;45277;52.768;18.262;2022-12-11T05:48:02;-1.50;99.90
59469;DHT22;45277;52.768;18.262;2022-12-11T05:49:34;-1.50;99.90
59469;DHT22;45277;52.768;18.262;2022-12-11T05:51:06;-1.50;99.90
59469;DHT22;45277;52.768;18.262;2022-12-11T05:52:38;-1.50;99.90
59469;DHT22;45277;52.768;18.262;2022-12-11T05:54:10;-1.60;99.90
59469;DHT22;45277;52.768;18.262;2022-12-11T05:55:41;-1.60;99.90
59469;DHT22;45277;52.768;18.262;2022-12-11T05:57:13;-1.60;99.90
59469;DHT22;45277;52.768;18.262;2022-12-11T05:58:45;-1.60;99.90
59469;DHT22;45277;52.768;18.262;2022-12-11T06:00:16;-1.60;99.90
59469;DHT22;45277;52.768;18.262;2022-12-11T06:01:48;-1.60;99.90
59469;DHT22;45277;52.768;18.262;2022-12-11T06:03:20;-1.70;99.90
59469;DHT22;45277;52.768;18.262;2022-12-11T06:04:51;-1.60;99.90
59469;DHT22;45277;52.768;18.262;2022-12-11T06:06:24;-1.70;99.90
59469;DHT22;45277;52.768;18.262;2022-12-11T06:07:55;-1.70;99.90
59469;DHT22;45277;52.768;18.262;2022-12-11T06:09:27;-1.60;99.90
59469;DHT22;45277;52.768;18.262;2022-12-11T06:10:59;-1.60;99.90
59469;DHT22;45277;52.768;18.262;2022-12-11T06:12:30;-1.60;99.90
59469;DHT22;45277;52.768;18.262;2022-12-11T06:14:02;-1.50;99.90
59469;DHT22;45277;52.768;18.262;2022-12-11T06:15:34;-1.50;99.90
59469;DHT22;45277;52.768;18.262;2022-12-11T06:17:05;-1.60;99.90
59469;DHT22;45277;52.768;18.262;2022-12-11T06:18:39;-1.70;99.90
59469;DHT22;45277;52.768;18.262;2022-12-11T06:20:11;-1.60;99.90
59469;DHT22;45277;52.768;18.262;2022-12-11T06:21:42;-1.70;99.90
59469;DHT22;45277;52.768;18.262;2022-12-11T06:23:14;-1.70;99.90
59469;DHT22;45277;52.768;18.262;2022-12-11T06:24:46;-1.60;99.90
59469;DHT22;45277;52.768;18.262;2022-12-11T06:26:18;-1.60;99.90
59469;DHT22;45277;52.768;18.262;2022-12-11T06:27:50;-1.60;99.90
59469;DHT22;45277;52.768;18.262;2022-12-11T06:29:22;-1.50;99.90
59469;DHT22;45277;52.768;18.262;2022-12-11T06:30:53;-1.60;99.90
59469;DHT22;45277;52.768;18.262;2022-12-11T06:32:24;-1.60;99.90
59469;DHT22;45277;52.768;18.262;2022-12-11T06:33:56;-1.50;99.90
59469;DHT22;45277;52.768;18.262;2022-12-11T06:35:27;-1.50;99.90
59469;DHT22;45277;52.768;18.262;2022-12-11T06:36:59;-1.50;99.90
59469;DHT22;45277;52.768;18.262;2022-12-11T06:38:31;-1.50;99.90
59469;DHT22;45277;52.768;18.262;2022-12-11T06:40:04;-1.50;99.90
59469;DHT22;45277;52.768;18.262;2022-12-11T06:41:35;-1.60;99.90
59469;DHT22;45277;52.768;18.262;2022-12-11T06:43:07;-1.60;99.90
59469;DHT22;45277;52.768;18.262;2022-12-11T06:44:38;-1.60;99.90
59469;DHT22;45277;52.768;18.262;2022-12-11T06:46:15;-1.60;99.90
59469;DHT22;45277;52.768;18.262;2022-12-11T06:47:47;-1.60;99.90
59469;DHT22;45277;52.768;18.262;2022-12-11T06:49:19;-1.70;99.90
59469;DHT22;45277;52.768;18.262;2022-12-11T06:50:50;-1.70;99.90
59469;DHT22;45277;52.768;18.262;2022-12-11T06:52:24;-1.70;99.90
59469;DHT22;45277;52.768;18.262;2022-12-11T06:53:56;-1.70;99.90
59469;DHT22;45277;52.768;18.262;2022-12-11T06:55:27;-1.70;99.90
59469;DHT22;45277;52.768;18.262;2022-12-11T06:56:59;-1.70;99.90
59469;DHT22;45277;52.768;18.262;2022-12-11T06:58:32;-1.70;99.90
59469;DHT22;45277;52.768;18.262;2022-12-11T07:00:04;-1.70;99.90
59469;DHT22;45277;52.768;18.262;2022-12-11T07:01:36;-1.70;99.90
59469;DHT22;45277;52.768;18.262;2022-12-11T07:03:09;-1.80;99.90
59469;DHT22;45277;52.768;18.262;2022-12-11T07:04:40;-1.80;99.90
59469;DHT22;45277;52.768;18.262;2022-12-11T07:06:13;-1.80;99.90
59469;DHT22;45277;52.768;18.262;2022-12-11T07:07:44;-1.80;99.90
59469;DHT22;45277;52.768;18.262;2022-12-11T07:09:16;-1.80;99.90
59469;DHT22;45277;52.768;18.262;2022-12-11T07:10:48;-1.90;99.90
59469;DHT22;45277;52.768;18.262;2022-12-11T07:12:20;-1.80;99.90
59469;DHT22;45277;52.768;18.262;2022-12-11T07:13:51;-1.80;99.90
59469;DHT22;45277;52.768;18.262;2022-12-11T07:15:23;-1.70;99.90
59469;DHT22;45277;52.768;18.262;2022-12-11T07:16:54;-1.80;99.90
59469;DHT22;45277;52.768;18.262;2022-12-11T07:18:27;-1.70;99.90
59469;DHT22;45277;52.768;18.262;2022-12-11T07:19:58;-1.80;99.90
59469;DHT22;45277;52.768;18.262;2022-12-11T07:21:30;-1.70;99.90
59469;DHT22;45277;52.768;18.262;2022-12-11T07:23:02;-1.70;99.90
59469;DHT22;45277;52.768;18.262;2022-12-11T07:24:34;-1.70;99.90
59469;DHT22;45277;52.768;18.262;2022-12-11T07:26:07;-1.70;99.90
59469;DHT22;45277;52.768;18.262;2022-12-11T07:27:39;-1.80;99.90
59469;DHT22;45277;52.768;18.262;2022-12-11T07:29:11;-1.80;99.90
59469;DHT22;45277;52.768;18.262;2022-12-11T07:30:43;-1.80;99.90
59469;DHT22;45277;52.768;18.262;2022-12-11T07:32:14;-1.80;99.90
59469;DHT22;45277;52.768;18.262;2022-12-11T07:33:46;-1.80;99.90
59469;DHT22;45277;52.768;18.262;2022-12-11T07:35:18;-1.80;99.90
59469;DHT22;45277;52.768;18.262;2022-12-11T07:36:49;-1.80;99.90
59469;DHT22;45277;52.768;18.262;2022-12-11T07:38:21;-1.80;99.90
59469;DHT22;45277;52.768;18.262;2022-12-11T07:39:53;-1.80;99.90
59469;DHT22;45277;52.768;18.262;2022-12-11T07:41:25;-1.80;99.90
59469;DHT22;45277;52.768;18.262;2022-12-11T07:42:59;-1.80;99.90
59469;DHT22;45277;52.768;18.262;2022-12-11T07:44:30;-1.80;99.90
59469;DHT22;45277;52.768;18.262;2022-12-11T07:46:04;-1.80;99.90
59469;DHT22;45277;52.768;18.262;2022-12-11T07:47:36;-1.80;99.90
59469;DHT22;45277;52.768;18.262;2022-12-11T07:49:07;-1.80;99.90
59469;DHT22;45277;52.768;18.262;2022-12-11T07:50:39;-1.90;99.90
59469;DHT22;45277;52.768;18.262;2022-12-11T07:52:13;-1.90;99.90
59469;DHT22;45277;52.768;18.262;2022-12-11T07:53:48;-2.00;99.90
59469;DHT22;45277;52.768;18.262;2022-12-11T07:55:19;-1.90;99.90
59469;DHT22;45277;52.768;18.262;2022-12-11T07:56:51;-1.90;99.90
59469;DHT22;45277;52.768;18.262;2022-12-11T07:58:23;-1.90;99.90
59469;DHT22;45277;52.768;18.262;2022-12-11T07:59:54;-1.90;99.90
59469;DHT22;45277;52.768;18.262;2022-12-11T08:01:27;-1.80;99.90
59469;DHT22;45277;52.768;18.262;2022-12-11T08:02:59;-1.90;99.90
59469;DHT22;45277;52.768;18.262;2022-12-11T08:04:31;-1.90;99.90
59469;DHT22;45277;52.768;18.262;2022-12-11T08:06:03;-1.90;99.90
59469;DHT22;45277;52.768;18.262;2022-12-11T08:07:34;-1.80;99.90
59469;DHT22;45277;52.768;18.262;2022-12-11T08:09:08;-1.80;99.90
59469;DHT22;45277;52.768;18.262;2022-12-11T08:10:40;-1.80;99.90
59469;DHT22;45277;52.768;18.262;2022-12-11T08:12:12;-1.80;99.90
59469;DHT22;45277;52.768;18.262;2022-12-11T08:13:44;-1.80;99.90
59469;DHT22;45277;52.768;18.262;2022-12-11T08:15:16;-1.90;99.90
59469;DHT22;45277;52.768;18.262;2022-12-11T08:16:48;-2.00;99.90
59469;DHT22;45277;52.768;18.262;2022-12-11T08:18:19;-1.90;99.90
59469;DHT22;45277;52.768;18.262;2022-12-11T08:19:51;-1.90;99.90
59469;DHT22;45277;52.768;18.262;2022-12-11T08:21:25;-2.00;99.90
59469;DHT22;45277;52.768;18.262;2022-12-11T08:22:56;-2.00;99.90
59469;DHT22;45277;52.768;18.262;2022-12-11T08:24:28;-2.00;99.90
59469;DHT22;45277;52.768;18.262;2022-12-11T08:26:04;-2.00;99.90
59469;DHT22;45277;52.768;18.262;2022-12-11T08:27:36;-2.00;99.90
59469;DHT22;45277;52.768;18.262;2022-12-11T08:29:09;-2.00;99.90
59469;DHT22;45277;52.768;18.262;2022-12-11T08:30:41;-2.00;99.90
59469;DHT22;45277;52.768;18.262;2022-12-11T08:32:12;-2.00;99.90
59469;DHT22;45277;52.768;18.262;2022-12-11T08:33:48;-2.00;99.90
59469;DHT22;45277;52.768;18.262;2022-12-11T08:35:20;-2.00;99.90
59469;DHT22;45277;52.768;18.262;2022-12-11T08:36:52;-2.00;99.90
59469;DHT22;45277;52.768;18.262;2022-12-11T08:38:24;-2.00;99.90
59469;DHT22;45277;52.768;18.262;2022-12-11T08:39:56;-2.00;99.90
59469;DHT22;45277;52.768;18.262;2022-12-11T08:41:29;-2.00;99.90
59469;DHT22;45277;52.768;18.262;2022-12-11T08:43:01;-2.00;99.90
59469;DHT22;45277;52.768;18.262;2022-12-11T08:44:32;-2.00;99.90
59469;DHT22;45277;52.768;18.262;2022-12-11T08:46:04;-1.90;99.90
59469;DHT22;45277;52.768;18.262;2022-12-11T08:47:37;-2.00;99.90
59469;DHT22;45277;52.768;18.262;2022-12-11T08:49:09;-2.00;99.90
59469;DHT22;45277;52.768;18.262;2022-12-11T08:50:41;-2.00;99.90
59469;DHT22;45277;52.768;18.262;2022-12-11T08:52:14;-2.10;99.90
59469;DHT22;45277;52.768;18.262;2022-12-11T08:53:46;-2.10;99.90
59469;DHT22;45277;52.768;18.262;2022-12-11T08:55:18;-2.10;99.90
59469;DHT22;45277;52.768;18.262;2022-12-11T08:56:50;-2.10;99.90
59469;DHT22;45277;52.768;18.262;2022-12-11T08:58:21;-2.00;99.90
59469;DHT22;45277;52.768;18.262;2022-12-11T08:59:53;-2.00;99.90
59469;DHT22;45277;52.768;18.262;2022-12-11T09:01:26;-2.00;99.90
59469;DHT22;45277;52.768;18.262;2022-12-11T09:02:57;-2.00;99.90
59469;DHT22;45277;52.768;18.262;2022-12-11T09:04:29;-2.00;99.90
59469;DHT22;45277;52.768;18.262;2022-12-11T09:06:04;-2.00;99.90
59469;DHT22;45277;52.768;18.262;2022-12-11T09:07:36;-1.90;99.90
59469;DHT22;45277;52.768;18.262;2022-12-11T09:09:09;-1.90;99.90
59469;DHT22;45277;52.768;18.262;2022-12-11T09:10:41;-1.90;99.90
59469;DHT22;45277;52.768;18.262;2022-12-11T09:12:12;-2.00;99.90
59469;DHT22;45277;52.768;18.262;2022-12-11T09:13:44;-2.00;99.90
59469;DHT22;45277;52.768;18.262;2022-12-11T09:15:16;-2.00;99.90
59469;DHT22;45277;52.768;18.262;2022-12-11T09:16:47;-1.80;99.90
59469;DHT22;45277;52.768;18.262;2022-12-11T09:18:19;-1.90;99.90
59469;DHT22;45277;52.768;18.262;2022-12-11T09:19:51;-1.90;99.90
59469;DHT22;45277;52.768;18.262;2022-12-11T09:21:25;-2.00;99.90
59469;DHT22;45277;52.768;18.262;2022-12-11T09:22:56;-2.00;99.90
59469;DHT22;45277;52.768;18.262;2022-12-11T09:24:28;-2.00;99.90
59469;DHT22;45277;52.768;18.262;2022-12-11T09:26:03;-1.90;99.90
59469;DHT22;45277;52.768;18.262;2022-12-11T09:27:35;-2.00;99.90
59469;DHT22;45277;52.768;18.262;2022-12-11T09:29:10;-2.00;99.90
59469;DHT22;45277;52.768;18.262;2022-12-11T09:30:42;-1.90;99.90
59469;DHT22;45277;52.768;18.262;2022-12-11T09:32:13;-2.00;99.90
59469;DHT22;45277;52.768;18.262;2022-12-11T09:33:45;-2.00;99.90
59469;DHT22;45277;52.768;18.262;2022-12-11T09:35:21;-2.00;99.90
59469;DHT22;45277;52.768;18.262;2022-12-11T09:36:52;-1.90;99.90
59469;DHT22;45277;52.768;18.262;2022-12-11T09:38:25;-1.90;99.90
59469;DHT22;45277;52.768;18.262;2022-12-11T09:39:56;-2.00;99.90
59469;DHT22;45277;52.768;18.262;2022-12-11T09:42:02;-2.10;99.90
59469;DHT22;45277;52.768;18.262;2022-12-11T09:43:36;-2.10;99.90
59469;DHT22;45277;52.768;18.262;2022-12-11T09:45:11;-2.10;99.90
59469;DHT22;45277;52.768;18.262;2022-12-11T09:46:45;-2.10;99.90
59469;DHT22;45277;52.768;18.262;2022-12-11T09:48:21;-2.20;99.90
59469;DHT22;45277;52.768;18.262;2022-12-11T09:50:12;-2.20;99.90